Time;durP1;ratioP1;P1;durP2;ratioP2;P2;SDS_P1;SDS_P2;PMS_P1;PMS_P2;Temp;Humidity;BMP_temperature;BMP_pressure;BME280_temperature;BME280_humidity;BME280_pressure;Samples;Min_cycle;Max_cycle;Signal;HPM_P1;HPM_P2
2023/01/09 00:00:20;;;;;;;0.10;0.10;;;;;;;6.71;71.33;98144.69;7360352;19;20048;-58
2023/01/09 00:02:46;;;;;;;0.00;0.00;;;;;;;6.70;71.28;98145.63;7361454;19;21278;-58
2023/01/09 00:05:13;;;;;;;0.10;0.10;;;;;;;6.70;71.33;98143.88;7362435;19;20021;-58
2023/01/09 00:07:39;;;;;;;0.05;0.05;;;;;;;6.70;70.96;98153.41;7359356;19;20874;-58
2023/01/09 00:10:09;;;;;;;0.10;0.10;;;;;;;6.71;70.99;98162.84;7356868;19;20014;-58
2023/01/09 00:12:35;;;;;;;0.10;0.10;;;;;;;6.70;71.06;98174.16;7362089;19;20589;-58
2023/01/09 00:15:01;;;;;;;0.00;0.00;;;;;;;6.66;71.23;98162.22;7362018;19;20102;-57
2023/01/09 00:17:27;;;;;;;0.00;0.00;;;;;;;6.68;71.10;98163.81;7360838;19;22657;-57
2023/01/09 00:19:52;;;;;;;0.10;0.10;;;;;;;6.68;71.14;98162.97;7361537;19;20081;-57
2023/01/09 00:22:18;;;;;;;0.00;0.00;;;;;;;6.68;71.17;98170.75;7358537;19;20470;-57
2023/01/09 00:24:43;;;;;;;0.00;0.00;;;;;;;6.68;70.97;98170.75;7359729;19;20496;-58
2023/01/09 00:27:09;;;;;;;0.10;0.10;;;;;;;6.68;71.24;98181.97;7357572;19;20007;-58
2023/01/09 00:29:34;;;;;;;0.00;0.00;;;;;;;6.71;70.85;98193.97;7356768;19;20031;-58
2023/01/09 00:32:00;;;;;;;0.10;0.10;;;;;;;6.69;70.83;98193.19;7359803;19;20502;-58
2023/01/09 00:34:26;;;;;;;0.08;0.08;;;;;;;6.69;71.01;98193.19;7356681;19;20030;-58
2023/01/09 00:36:54;;;;;;;0.00;0.00;;;;;;;6.71;71.08;98201.75;7359869;19;20495;-58
2023/01/09 00:39:20;;;;;;;0.00;0.00;;;;;;;6.71;71.10;98201.75;7360433;19;20086;-57
2023/01/09 00:41:50;;;;;;;0.10;0.10;;;;;;;6.73;70.79;98211.13;7359285;19;20022;-56
2023/01/09 00:44:32;;;;;;;0.10;0.10;;;;;;;6.76;71.22;98225.72;7359572;19;20013;-55
2023/01/09 00:47:09;;;;;;;0.00;0.00;;;;;;;6.78;71.32;98197.94;7361121;19;20017;-58
2023/01/09 00:49:36;;;;;;;0.00;0.00;;;;;;;6.82;71.33;98220.25;7361951;19;20010;-58
2023/01/09 00:52:04;;;;;;;0.00;0.00;;;;;;;6.86;71.15;98221.78;7357732;19;20018;-58
2023/01/09 00:54:30;;;;;;;0.00;0.00;;;;;;;6.88;71.19;98219.94;7359329;19;20015;-58
2023/01/09 00:56:57;;;;;;;0.10;0.10;;;;;;;6.95;71.30;98216.16;7358919;19;20014;-56
2023/01/09 00:59:23;;;;;;;0.00;0.00;;;;;;;7.01;71.20;98215.84;7360229;19;20015;-58
2023/01/09 01:01:48;;;;;;;0.10;0.10;;;;;;;7.01;71.04;98208.06;7360494;19;20022;-58
2023/01/09 01:09:41;;;;;;;0.00;0.00;;;;;;;7.15;71.04;98224.75;7357443;19;20027;-57
2023/01/09 01:12:07;;;;;;;0.10;0.10;;;;;;;7.23;70.58;98240.78;7360471;19;22478;-58
2023/01/09 01:14:37;;;;;;;0.00;0.00;;;;;;;7.25;70.74;98244.16;7358853;19;20047;-58
2023/01/09 01:17:04;;;;;;;0.00;0.00;;;;;;;7.31;70.46;98228.28;7359230;19;20007;-58
2023/01/09 01:19:29;;;;;;;0.10;0.10;;;;;;;7.31;70.35;98219.66;7359680;19;20006;-58
2023/01/09 01:21:55;;;;;;;0.10;0.10;;;;;;;7.39;70.73;98233.06;7360409;19;20011;-59
2023/01/09 01:24:21;;;;;;;0.00;0.00;;;;;;;7.42;70.71;98246.75;7359019;19;20026;-58
2023/01/09 01:26:46;;;;;;;0.00;0.00;;;;;;;7.45;70.20;98232.75;7356523;19;20788;-58
2023/01/09 01:29:12;;;;;;;0.08;0.08;;;;;;;7.38;70.51;98245.22;7359339;19;24927;-58
2023/01/09 01:31:38;;;;;;;0.00;0.00;;;;;;;7.51;70.59;98259.28;7356094;19;20015;-58
2023/01/09 01:34:03;;;;;;;0.00;0.00;;;;;;;7.54;70.50;98266.06;7356912;19;20014;-58
2023/01/09 01:36:28;;;;;;;0.00;0.00;;;;;;;7.53;70.27;98265.22;7357685;19;20014;-58
2023/01/09 01:38:54;;;;;;;0.00;0.00;;;;;;;7.45;70.91;98267.38;7356744;19;20007;-58
2023/01/09 01:41:28;;;;;;;0.10;0.10;;;;;;;7.52;70.42;98268.75;7356750;19;20047;-57
2023/01/09 01:44:00;;;;;;;0.10;0.10;;;;;;;7.60;70.41;98275.31;7354486;19;20018;-58
2023/01/09 01:46:26;;;;;;;0.00;0.00;;;;;;;7.60;70.82;98270.13;7363272;19;19999;-58
2023/01/09 01:48:58;;;;;;;0.00;0.00;;;;;;;7.63;70.88;98280.38;7364394;19;20581;-58
2023/01/09 01:51:27;;;;;;;0.00;0.00;;;;;;;7.60;70.40;98290.91;7363624;19;20612;-58
2023/01/09 01:53:57;;;;;;;0.00;0.00;;;;;;;7.64;70.77;98297.63;7363007;19;20414;-58
2023/01/09 01:56:52;;;;;;;0.05;0.05;;;;;;;7.63;70.58;98293.34;7366332;19;20006;-58
2023/01/09 01:59:20;;;;;;;0.00;0.00;;;;;;;7.61;71.14;98309.03;7257701;19;2004586;-58
2023/01/09 02:01:49;;;;;;;0.00;0.00;;;;;;;7.61;71.32;98313.38;7365538;19;20513;-58
2023/01/09 02:04:15;;;;;;;0.10;0.10;;;;;;;7.59;71.10;98315.19;7361179;19;20019;-57
2023/01/09 02:06:42;;;;;;;0.05;0.05;;;;;;;7.56;71.82;98325.75;7366987;19;20021;-58
2023/01/09 02:09:08;;;;;;;0.00;0.00;;;;;;;7.57;71.88;98324.81;7361900;19;20581;-58
2023/01/09 02:11:33;;;;;;;0.00;0.00;;;;;;;7.53;71.86;98337.94;7365994;19;20013;-57
2023/01/09 02:14:01;;;;;;;0.10;0.10;;;;;;;7.48;71.82;98319.16;7361522;19;20844;-58
2023/01/09 02:17:11;;;;;;;0.00;0.00;;;;;;;7.58;71.67;98362.88;7364711;19;20029;-58
2023/01/09 02:19:36;;;;;;;0.10;0.10;;;;;;;7.53;72.52;98373.47;7259770;19;2004399;-58
2023/01/09 02:22:20;;;;;;;0.00;0.00;;;;;;;7.57;72.26;98376.78;7359803;19;20010;-57
2023/01/09 02:25:12;;;;;;;0.00;0.00;;;;;;;7.48;72.10;98371.09;7359802;19;20014;-58
2023/01/09 02:27:59;;;;;;;0.00;0.00;;;;;;;7.57;72.21;98394.94;7262583;19;2004490;-58
2023/01/09 02:30:28;;;;;;;0.00;0.00;;;;;;;7.56;72.39;98401.91;7364727;19;20020;-58
2023/01/09 02:33:00;;;;;;;0.00;0.00;;;;;;;7.53;72.97;98408.06;7361597;19;20010;-58
2023/01/09 02:35:47;;;;;;;0.00;0.00;;;;;;;7.57;72.70;98410.53;7364259;19;20018;-58
2023/01/09 02:38:23;;;;;;;0.00;0.00;;;;;;;7.55;72.42;98415.78;7359461;19;20010;-58
2023/01/09 02:41:00;;;;;;;0.00;0.00;;;;;;;7.57;72.87;98436.50;7364242;19;20434;-57
2023/01/09 02:43:26;;;;;;;;;;;;;;;7.57;72.20;98447.72;7364625;19;20042;-58
2023/01/09 02:45:51;;;;;;;0.00;0.00;;;;;;;7.47;72.50;98442.13;7363553;19;19919;-58
2023/01/09 02:48:17;;;;;;;0.05;0.05;;;;;;;7.52;72.57;98455.72;7364143;19;20013;-58
2023/01/09 02:51:16;;;;;;;0.00;0.00;;;;;;;7.53;72.68;98469.56;7365652;19;20014;-58
2023/01/09 02:53:56;;;;;;;0.00;0.00;;;;;;;7.52;73.24;98481.69;7261772;19;2004281;-59
2023/01/09 02:56:41;;;;;;;0.00;0.00;;;;;;;7.53;73.19;98483.38;7363379;19;20096;-58
2023/01/09 02:59:31;;;;;;;0.05;0.05;;;;;;;7.59;73.51;98497.00;7349953;19;20010;-58
2023/01/09 03:02:02;;;;;;;0.10;0.10;;;;;;;7.56;73.59;98510.13;7352919;19;20006;-57
2023/01/09 03:04:49;;;;;;;0.00;0.00;;;;;;;7.64;73.68;98521.00;7361427;19;20010;-58
2023/01/09 03:07:30;;;;;;;0.00;0.00;;;;;;;7.66;73.18;98539.97;7362221;19;20482;-58
2023/01/09 03:10:05;;;;;;;0.03;0.03;;;;;;;7.71;73.73;98538.00;7358370;19;20010;-58
2023/01/09 03:12:32;;;;;;;0.10;0.10;;;;;;;7.71;73.40;98545.81;7363094;19;20846;-58
2023/01/09 03:15:00;;;;;;;0.00;0.00;;;;;;;7.68;73.80;98545.94;7360788;19;20026;-57
2023/01/09 03:17:34;;;;;;;0.00;0.00;;;;;;;7.62;73.87;98554.84;7363915;19;20498;-58
2023/01/09 03:20:01;;;;;;;0.00;0.00;;;;;;;7.72;73.64;98587.28;7363201;19;20028;-58
2023/01/09 03:22:27;;;;;;;0.00;0.00;;;;;;;7.77;73.18;98595.72;7361158;19;20046;-58
2023/01/09 03:24:52;;;;;;;0.00;0.00;;;;;;;7.78;73.10;98591.38;7364569;19;20852;-58
2023/01/09 03:27:18;;;;;;;0.10;0.10;;;;;;;7.77;73.66;98595.72;7358952;19;20010;-58
2023/01/09 03:29:43;;;;;;;0.00;0.00;;;;;;;7.79;73.22;98606.03;7362125;19;20002;-58
2023/01/09 03:32:09;;;;;;;0.00;0.00;;;;;;;7.81;73.05;98619.81;7359541;19;20070;-57
2023/01/09 03:34:34;;;;;;;0.10;0.10;;;;;;;7.82;73.10;98624.09;7361745;19;20018;-58
2023/01/09 03:37:00;;;;;;;0.10;0.10;;;;;;;7.81;73.20;98627.63;7362925;19;20725;-58
2023/01/09 03:39:26;;;;;;;0.10;0.10;;;;;;;7.84;73.50;98643.06;7361565;19;20009;-58
2023/01/09 03:41:51;;;;;;;0.00;0.00;;;;;;;7.88;73.33;98657.59;7359945;19;20029;-58
2023/01/09 03:44:16;;;;;;;0.10;0.10;;;;;;;7.87;73.28;98668.06;7357711;19;20040;-58
2023/01/09 03:46:42;;;;;;;0.10;0.10;;;;;;;7.87;72.78;98674.13;7362168;19;20022;-55
2023/01/09 03:49:07;;;;;;;0.00;0.00;;;;;;;7.85;72.87;98678.50;7363110;19;20007;-58
2023/01/09 03:51:32;;;;;;;0.10;0.10;;;;;;;7.83;72.71;98680.34;7360127;19;20030;-58
2023/01/09 03:53:58;;;;;;;0.00;0.00;;;;;;;7.80;72.88;98673.50;7360271;19;20003;-59
2023/01/09 03:56:24;;;;;;;0.10;0.10;;;;;;;7.77;72.37;98688.41;7362332;19;20467;-57
2023/01/09 03:58:51;;;;;;;0.00;0.00;;;;;;;7.74;72.77;98691.13;7360926;19;20017;-58
2023/01/09 04:01:17;;;;;;;0.00;0.00;;;;;;;7.70;72.52;98692.16;7358498;19;20035;-56
2023/01/09 04:03:42;;;;;;;0.00;0.00;;;;;;;7.68;72.37;98709.59;7353117;19;20018;-58
2023/01/09 04:06:08;;;;;;;0.10;0.10;;;;;;;7.62;72.44;98715.06;7349915;19;20063;-58
2023/01/09 04:08:33;;;;;;;0.00;0.00;;;;;;;7.57;72.52;98727.41;7359110;19;20010;-59
2023/01/09 04:10:58;;;;;;;0.10;0.10;;;;;;;7.52;72.57;98737.97;7361853;19;20124;-57
2023/01/09 04:13:24;;;;;;;0.00;0.00;;;;;;;7.47;72.31;98732.13;7359485;19;20017;-58
2023/01/09 04:15:49;;;;;;;0.00;0.00;;;;;;;7.44;72.36;98730.47;7360487;19;20018;-58
2023/01/09 04:18:15;;;;;;;0.00;0.00;;;;;;;7.41;72.60;98740.19;7357673;19;20374;-58
2023/01/09 04:20:41;;;;;;;0.00;0.00;;;;;;;7.37;72.15;98726.47;7348829;19;20044;-58
2023/01/09 04:23:06;;;;;;;0.00;0.00;;;;;;;7.34;72.15;98739.56;7351488;19;20015;-56
2023/01/09 04:25:31;;;;;;;0.10;0.10;;;;;;;7.32;72.24;98749.19;7358538;19;20006;-57
2023/01/09 04:27:57;;;;;;;0.10;0.10;;;;;;;7.28;72.45;98756.22;7360043;19;20010;-58
2023/01/09 04:30:22;;;;;;;0.00;0.00;;;;;;;7.28;72.34;98760.59;7351953;19;20050;-58
2023/01/09 04:32:48;;;;;;;0.00;0.00;;;;;;;7.24;72.41;98756.41;7360125;19;20029;-56
2023/01/09 04:35:13;;;;;;;0.00;0.00;;;;;;;7.22;72.54;98764.28;7360450;19;20097;-58
2023/01/09 04:37:39;;;;;;;0.00;0.00;;;;;;;7.22;72.60;98766.03;7360307;19;20007;-59
2023/01/09 04:40:16;;;;;;;0.10;0.10;;;;;;;7.13;72.52;98762.03;7359719;19;20010;-58
2023/01/09 04:42:41;;;;;;;0.10;0.10;;;;;;;7.17;72.71;98770.56;7359439;19;20334;-58
2023/01/09 04:45:09;;;;;;;0.10;0.10;;;;;;;7.16;72.53;98779.25;7360158;19;20014;-58
2023/01/09 04:47:34;;;;;;;0.08;0.08;;;;;;;7.16;72.56;98782.69;7360724;19;20748;-58
2023/01/09 04:50:00;;;;;;;0.10;0.10;;;;;;;7.16;72.79;98776.66;7361452;19;20126;-57
2023/01/09 04:52:26;;;;;;;0.10;0.10;;;;;;;7.14;73.12;98791.44;7361638;19;20010;-58
2023/01/09 04:54:51;;;;;;;0.00;0.00;;;;;;;7.17;72.91;98786.13;7361253;19;21742;-58
2023/01/09 04:57:17;;;;;;;0.00;0.00;;;;;;;7.16;72.80;98795.69;7359646;19;20014;-58
2023/01/09 04:59:42;;;;;;;0.00;0.00;;;;;;;7.17;72.62;98801.72;7361862;19;25274;-58
2023/01/09 05:02:08;;;;;;;0.00;0.00;;;;;;;7.15;72.63;98806.97;7359571;19;20026;-58
2023/01/09 05:04:34;;;;;;;0.03;0.03;;;;;;;7.14;72.84;98817.38;7359316;19;20093;-58
2023/01/09 05:06:59;;;;;;;0.00;0.00;;;;;;;7.14;72.76;98822.59;7359980;19;20018;-58
2023/01/09 05:09:25;;;;;;;0.10;0.10;;;;;;;7.11;72.72;98838.28;7355260;19;20007;-58
2023/01/09 05:11:50;;;;;;;0.00;0.00;;;;;;;7.09;72.63;98832.28;7360509;19;20010;-58
2023/01/09 05:14:16;;;;;;;0.00;0.00;;;;;;;7.09;72.67;98827.09;7359703;19;20010;-58
2023/01/09 05:16:41;;;;;;;0.00;0.00;;;;;;;7.07;72.43;98831.53;7359029;19;20009;-58
2023/01/09 05:19:07;;;;;;;0.00;0.00;;;;;;;7.05;72.92;98833.34;7359002;19;20014;-57
2023/01/09 05:21:32;;;;;;;0.10;0.10;;;;;;;7.02;72.35;98832.53;7358995;19;20450;-58
2023/01/09 05:23:58;;;;;;;0.10;0.10;;;;;;;7.00;72.50;98844.75;7364710;19;20011;-58
2023/01/09 05:26:23;;;;;;;0.10;0.10;;;;;;;7.00;72.64;98842.16;7366201;19;20007;-57
2023/01/09 05:28:50;;;;;;;0.10;0.10;;;;;;;6.97;72.34;98862.16;7364754;19;20006;-58
2023/01/09 05:31:17;;;;;;;0.00;0.00;;;;;;;6.95;72.58;98864.81;7365814;19;20010;-58
2023/01/09 05:33:42;;;;;;;0.10;0.10;;;;;;;6.83;72.37;98833.28;7363504;19;20007;-57
2023/01/09 05:36:08;;;;;;;0.03;0.03;;;;;;;6.94;72.49;98863.09;7366009;19;20032;-58
2023/01/09 05:38:33;;;;;;;0.00;0.00;;;;;;;6.92;72.42;98851.09;7367615;19;20672;-58
2023/01/09 05:40:58;;;;;;;0.00;0.00;;;;;;;6.91;72.50;98868.44;7366973;19;20196;-58
2023/01/09 05:43:24;;;;;;;0.00;0.00;;;;;;;6.87;72.42;98872.03;7365452;19;20006;-58
2023/01/09 05:45:49;;;;;;;0.00;0.00;;;;;;;6.86;72.38;98879.88;7363907;19;20002;-56
2023/01/09 05:48:15;;;;;;;0.00;0.00;;;;;;;6.62;72.54;98845.31;7366087;19;20730;-56
2023/01/09 05:50:40;;;;;;;0.00;0.00;;;;;;;6.79;71.86;98897.41;7360616;19;20016;-58
2023/01/09 05:53:06;;;;;;;0.00;0.00;;;;;;;6.77;71.99;98888.84;7364011;19;20003;-58
2023/01/09 05:55:32;;;;;;;0.08;0.08;;;;;;;6.73;71.80;98884.66;7360496;19;20007;-58
2023/01/09 05:57:57;;;;;;;0.10;0.10;;;;;;;6.70;71.87;98900.34;7366924;19;20011;-58
2023/01/09 06:00:22;;;;;;;0.00;0.00;;;;;;;6.68;72.11;98912.50;7365583;19;20369;-58
2023/01/09 06:02:48;;;;;;;0.00;0.00;;;;;;;6.64;72.26;98916.09;7366709;19;20014;-57
2023/01/09 06:05:13;;;;;;;0.10;0.10;;;;;;;6.61;72.29;98917.06;7364104;19;20023;-57
2023/01/09 06:07:40;;;;;;;0.10;0.10;;;;;;;6.59;71.94;98924.06;7363050;19;20003;-58
2023/01/09 06:10:11;;;;;;;0.10;0.10;;;;;;;6.58;71.98;98922.34;7363631;19;20052;-58
2023/01/09 06:12:37;;;;;;;0.00;0.00;;;;;;;6.53;71.88;98919.06;7365672;19;20470;-58
2023/01/09 06:15:03;;;;;;;0.10;0.10;;;;;;;6.52;72.25;98934.69;7363154;19;20017;-58
2023/01/09 06:17:29;;;;;;;0.05;0.05;;;;;;;6.47;72.07;98940.88;7364913;19;20853;-58
2023/01/09 06:19:54;;;;;;;0.10;0.10;;;;;;;6.46;72.34;98952.16;7363455;19;20010;-58
2023/01/09 06:22:19;;;;;;;0.00;0.00;;;;;;;6.46;72.07;98948.72;7365767;19;20376;-57
2023/01/09 06:24:45;;;;;;;0.00;0.00;;;;;;;6.43;71.84;98952.25;7361710;19;20019;-57
2023/01/09 06:27:11;;;;;;;0.10;0.10;;;;;;;6.42;72.30;98957.50;7363821;19;20007;-58
2023/01/09 06:29:37;;;;;;;0.00;0.00;;;;;;;6.39;72.14;98962.81;7357657;19;20021;-58
2023/01/09 06:32:02;;;;;;;0.00;0.00;;;;;;;6.38;72.36;98972.31;7363411;19;20375;-57
2023/01/09 06:34:28;;;;;;;0.03;0.03;;;;;;;6.37;72.01;98970.63;7363584;19;20073;-58
2023/01/09 06:36:53;;;;;;;0.00;0.00;;;;;;;6.36;72.14;98974.09;7365458;19;20011;-57
2023/01/09 06:39:19;;;;;;;0.10;0.10;;;;;;;6.34;72.25;98986.28;7365343;19;20031;-58
2023/01/09 06:41:44;;;;;;;0.03;0.03;;;;;;;6.35;72.16;98982.78;7357114;19;20010;-57
2023/01/09 06:44:10;;;;;;;0.10;0.10;;;;;;;6.23;72.28;98972.81;7364307;19;20006;-58
2023/01/09 06:46:35;;;;;;;0.10;0.10;;;;;;;6.32;71.95;98992.41;7361472;19;20011;-58
2023/01/09 06:49:00;;;;;;;0.10;0.10;;;;;;;6.30;72.20;98994.22;7362853;19;20006;-58
2023/01/09 06:51:26;;;;;;;0.08;0.08;;;;;;;6.30;71.73;99010.63;7362406;19;20010;-58
2023/01/09 06:53:51;;;;;;;0.00;0.00;;;;;;;6.18;72.08;98995.44;7363071;19;20022;-58
2023/01/09 06:56:17;;;;;;;0.10;0.10;;;;;;;6.19;72.12;99002.34;7362461;19;20034;-58
2023/01/09 06:58:42;;;;;;;0.10;0.10;;;;;;;6.28;72.12;99022.75;7353571;19;20013;-58
2023/01/09 07:01:08;;;;;;;0.10;0.10;;;;;;;6.27;71.57;99026.25;7362637;19;20044;-58
2023/01/09 07:03:33;;;;;;;0.10;0.10;;;;;;;6.27;72.02;99043.56;7360866;19;20866;-58
2023/01/09 07:05:58;;;;;;;0.00;0.00;;;;;;;6.26;71.64;99050.47;7360813;19;20007;-56
2023/01/09 07:08:24;;;;;;;0.00;0.00;;;;;;;6.25;71.79;99059.16;7360238;19;20026;-58
2023/01/09 07:10:49;;;;;;;0.00;0.00;;;;;;;6.14;71.56;99040.50;7363639;19;20010;-58
2023/01/09 07:13:15;;;;;;;0.10;0.10;;;;;;;6.25;71.90;99074.72;7360005;19;20078;-58
2023/01/09 07:15:40;;;;;;;0.10;0.10;;;;;;;6.25;71.78;99079.91;7359127;19;20873;-58
2023/01/09 07:18:06;;;;;;;0.08;0.08;;;;;;;6.23;71.72;99081.66;7359050;19;20014;-58
2023/01/09 07:20:31;;;;;;;0.00;0.00;;;;;;;6.22;71.49;99086.00;7359802;19;20006;-58
2023/01/09 07:22:56;;;;;;;0.10;0.10;;;;;;;6.22;71.49;99085.16;7357205;19;20573;-57
2023/01/09 07:25:22;;;;;;;0.10;0.10;;;;;;;6.20;71.38;99097.34;7358893;19;20745;-58
2023/01/09 07:27:48;;;;;;;0.00;0.00;;;;;;;6.09;71.70;99086.44;7357653;19;20014;-58
2023/01/09 07:30:13;;;;;;;0.00;0.00;;;;;;;6.08;71.35;99092.50;7359722;19;20006;-56
2023/01/09 07:32:39;;;;;;;0.00;0.00;;;;;;;6.16;71.33;99116.47;7361348;19;20038;-57
2023/01/09 07:35:07;;;;;;;0.10;0.10;;;;;;;6.15;71.29;99125.13;7356414;19;20023;-58
2023/01/09 07:37:33;;;;;;;0.00;0.00;;;;;;;6.14;71.17;99136.41;7359702;19;20011;-58
2023/01/09 07:39:58;;;;;;;0.08;0.08;;;;;;;6.11;71.45;99134.72;7362104;19;21301;-58
2023/01/09 07:42:24;;;;;;;0.00;0.00;;;;;;;6.12;71.50;99143.34;7360002;19;20481;-58
2023/01/09 07:44:49;;;;;;;0.00;0.00;;;;;;;6.11;71.16;99142.50;7358136;19;20017;-58
2023/01/09 07:47:15;;;;;;;0.10;0.10;;;;;;;6.08;71.48;99139.16;7363494;19;20837;-58
2023/01/09 07:49:40;;;;;;;0.00;0.00;;;;;;;6.09;71.46;99146.06;7355066;19;20014;-57
2023/01/09 07:52:06;;;;;;;0.00;0.00;;;;;;;6.08;71.51;99158.13;7350784;19;20017;-58
2023/01/09 07:54:31;;;;;;;0.00;0.00;;;;;;;6.06;71.39;99154.75;7361718;19;20010;-58
2023/01/09 07:56:56;;;;;;;0.10;0.10;;;;;;;6.05;70.99;99160.00;7363086;19;20010;-58
2023/01/09 07:59:22;;;;;;;0.00;0.00;;;;;;;6.04;71.15;99163.47;7358685;19;20102;-58
2023/01/09 08:01:47;;;;;;;0.00;0.00;;;;;;;6.01;71.48;99173.91;7354337;19;20014;-55
2023/01/09 08:04:13;;;;;;;0.03;0.03;;;;;;;5.91;71.54;99168.13;7360359;19;20501;-57
2023/01/09 08:06:38;;;;;;;0.00;0.00;;;;;;;5.91;71.38;99184.53;7356921;19;20025;-55
2023/01/09 08:09:04;;;;;;;0.00;0.00;;;;;;;5.97;71.36;99204.25;7359651;19;20885;-58
2023/01/09 08:11:31;;;;;;;0.10;0.10;;;;;;;5.95;71.46;99204.28;7357370;19;20029;-58
2023/01/09 08:13:56;;;;;;;0.10;0.10;;;;;;;5.80;71.23;99191.72;7361753;19;20018;-58
2023/01/09 08:16:22;;;;;;;0.00;0.00;;;;;;;5.92;71.27;99222.50;7359444;19;20042;-57
2023/01/09 08:18:47;;;;;;;0.10;0.10;;;;;;;5.91;71.13;99222.53;7360737;19;20393;-58
2023/01/09 08:21:13;;;;;;;0.05;0.05;;;;;;;5.90;71.14;99234.63;7360242;19;20020;-58
2023/01/09 08:23:38;;;;;;;0.10;0.10;;;;;;;5.86;71.06;99235.59;7356202;19;20106;-57
2023/01/09 08:26:04;;;;;;;0.00;0.00;;;;;;;5.86;70.94;99245.97;7362585;19;20109;-58
2023/01/09 08:28:30;;;;;;;0.10;0.10;;;;;;;5.85;70.99;99246.00;7355821;19;20018;-58
2023/01/09 08:30:55;;;;;;;0.10;0.10;;;;;;;5.83;71.04;99248.66;7363011;19;20015;-57
2023/01/09 08:33:21;;;;;;;0.00;0.00;;;;;;;5.84;70.87;99247.75;7361500;19;20006;-57
2023/01/09 08:35:47;;;;;;;0.10;0.10;;;;;;;5.82;70.85;99272.81;7362592;19;20010;-58
2023/01/09 08:38:12;;;;;;;0.10;0.10;;;;;;;5.74;71.13;99256.66;7358780;19;20019;-57
2023/01/09 08:40:38;;;;;;;0.00;0.00;;;;;;;5.84;71.14;99281.44;7361832;19;20006;-57
2023/01/09 08:48:32;;;;;;;0.00;0.00;;;;;;;5.81;70.76;99291.00;7358006;19;20066;-58
2023/01/09 08:50:57;;;;;;;0.00;0.00;;;;;;;5.83;70.70;99297.00;7361623;19;20010;-58
2023/01/09 08:53:22;;;;;;;0.00;0.00;;;;;;;5.78;71.11;99291.97;7332485;19;20006;-58
2023/01/09 08:55:48;;;;;;;0.08;0.08;;;;;;;5.65;70.80;99275.88;7360127;19;20026;-57
2023/01/09 08:58:13;;;;;;;0.10;0.10;;;;;;;5.80;70.51;99310.88;7355433;19;20470;-58
2023/01/09 09:00:39;;;;;;;0.08;0.08;;;;;;;5.80;70.96;99313.47;7358824;19;20025;-57
2023/01/09 09:03:04;;;;;;;0.00;0.00;;;;;;;5.78;70.58;99306.63;7354332;19;20006;-58
2023/01/09 09:05:31;;;;;;;0.10;0.10;;;;;;;5.74;70.94;99305.88;7351475;19;20023;-58
2023/01/09 09:07:58;;;;;;;0.10;0.10;;;;;;;5.80;70.47;99326.44;7352695;19;20006;-58
2023/01/09 09:10:25;;;;;;;0.10;0.10;;;;;;;5.81;71.07;99330.72;7351926;19;21066;-58
2023/01/09 09:12:52;;;;;;;;;;;;;;;5.83;70.90;99323.78;7350432;19;20014;-55
2023/01/09 09:15:26;;;;;;;0.10;0.10;;;;;;;5.80;70.85;99341.97;7350343;19;20390;-58
2023/01/09 09:17:53;;;;;;;0.10;0.10;;;;;;;5.84;70.32;99338.41;7347310;19;20019;-58
2023/01/09 09:20:20;;;;;;;0.10;0.10;;;;;;;5.84;70.40;99343.59;7349443;19;20034;-58
2023/01/09 09:22:46;;;;;;;0.10;0.10;;;;;;;5.83;70.72;99341.03;7355464;19;20027;-58
2023/01/09 09:25:13;;;;;;;0.00;0.00;;;;;;;5.84;70.53;99351.38;7358252;19;20010;-57
2023/01/09 09:27:38;;;;;;;0.00;0.00;;;;;;;5.84;70.98;99359.13;7359297;19;21247;-58
2023/01/09 09:30:05;;;;;;;0.10;0.10;;;;;;;5.83;70.87;99347.09;7355551;19;20007;-58
2023/01/09 09:32:31;;;;;;;0.00;0.00;;;;;;;5.89;70.52;99357.28;7356907;19;20041;-58
2023/01/09 09:34:56;;;;;;;0.00;0.00;;;;;;;5.93;70.96;99366.72;7358089;19;20006;-58
2023/01/09 09:37:22;;;;;;;0.00;0.00;;;;;;;5.96;70.70;99364.03;7358289;19;20007;-58
2023/01/09 09:39:47;;;;;;;0.10;0.10;;;;;;;5.98;70.26;99372.63;7351007;19;20002;-58
2023/01/09 09:45:33;;;;;;;0.10;0.10;;;;;;;6.08;70.42;99408.66;7243618;19;2004373;-57
2023/01/09 09:48:10;;;;;;;0.00;0.00;;;;;;;6.11;70.41;99413.78;7355571;19;20116;-58
2023/01/09 09:50:39;;;;;;;0.00;0.00;;;;;;;6.12;70.36;99421.50;7354683;19;20002;-57
2023/01/09 09:53:04;;;;;;;0.03;0.03;;;;;;;6.13;70.30;99407.69;7356634;19;20014;-58
2023/01/09 09:55:33;;;;;;;0.00;0.00;;;;;;;6.19;70.68;99422.22;7361269;19;20011;-58
2023/01/09 09:58:02;;;;;;;0.10;0.10;;;;;;;6.23;70.55;99423.81;7350097;19;20021;-58
2023/01/09 10:00:28;;;;;;;0.10;0.10;;;;;;;6.32;71.02;99439.16;7348287;19;20070;-57
2023/01/09 10:03:00;;;;;;;0.03;0.03;;;;;;;6.38;70.27;99453.69;7353900;19;20713;-57
2023/01/09 10:05:29;;;;;;;0.00;0.00;;;;;;;6.46;70.98;99457.81;7359267;19;20014;-59
2023/01/09 10:08:01;;;;;;;0.10;0.10;;;;;;;6.59;70.82;99450.56;7354297;19;20022;-58
2023/01/09 10:10:39;;;;;;;0.00;0.00;;;;;;;6.72;70.51;99451.06;7359667;19;20018;-58
2023/01/09 10:16:04;;;;;;;0.00;0.00;;;;;;;7.00;70.06;99469.34;7363071;19;20058;-58
2023/01/09 10:18:52;;;;;;;0.10;0.10;;;;;;;7.14;70.61;99466.34;7361671;19;20044;-58
2023/01/09 10:21:22;;;;;;;0.10;0.10;;;;;;;7.28;70.10;99469.41;7359000;19;20014;-58
2023/01/09 10:23:47;;;;;;;0.08;0.08;;;;;;;7.41;70.07;99475.09;7364045;19;20130;-57
2023/01/09 10:26:15;;;;;;;0.10;0.10;;;;;;;7.59;69.67;99489.28;7358910;19;20025;-58
2023/01/09 10:29:15;;;;;;;0.00;0.00;;;;;;;7.83;69.05;99482.50;7362861;19;20010;-58
2023/01/09 10:31:54;;;;;;;0.10;0.10;;;;;;;7.95;68.32;99482.94;7258196;19;2004250;-58
2023/01/09 10:34:37;;;;;;;0.00;0.00;;;;;;;8.09;68.43;99494.66;7360664;19;20018;-58
2023/01/09 10:37:11;;;;;;;0.03;0.03;;;;;;;8.25;67.41;99490.66;7361529;19;20023;-58
2023/01/09 10:39:53;;;;;;;0.00;0.00;;;;;;;8.42;67.44;99509.22;7360743;19;20041;-58
2023/01/09 10:42:32;;;;;;;0.10;0.10;;;;;;;8.60;67.61;99499.09;7360493;19;20010;-58
2023/01/09 10:45:19;;;;;;;0.00;0.00;;;;;;;8.67;67.08;99495.38;7358599;19;20041;-58
2023/01/09 10:47:46;;;;;;;;;;;;;;;8.89;67.10;99514.56;7359920;19;20010;-58
2023/01/09 10:50:27;;;;;;;0.00;0.00;;;;;;;8.98;65.75;99514.25;7359550;19;21074;-58
2023/01/09 10:52:54;;;;;;;0.00;0.00;;;;;;;8.95;64.85;99519.56;7360206;19;20035;-59
2023/01/09 10:55:43;;;;;;;0.10;0.10;;;;;;;8.92;65.48;99498.84;7362709;19;20017;-57
2023/01/09 10:58:13;;;;;;;0.00;0.00;;;;;;;9.06;64.80;99513.97;7358333;19;20039;-58
2023/01/09 11:00:40;;;;;;;0.00;0.00;;;;;;;9.09;64.99;99501.69;7360034;19;20057;-58
2023/01/09 11:03:10;;;;;;;0.00;0.00;;;;;;;9.21;64.61;99515.16;7357834;19;20466;-58
2023/01/09 11:05:36;;;;;;;0.00;0.00;;;;;;;9.20;64.21;99506.50;7358860;19;20043;-58
2023/01/09 11:08:07;;;;;;;0.00;0.00;;;;;;;9.35;64.02;99505.09;7361517;19;20014;-59
2023/01/09 11:10:45;;;;;;;0.00;0.00;;;;;;;9.41;64.48;99517.91;7361823;19;20014;-58
2023/01/09 11:13:31;;;;;;;0.10;0.10;;;;;;;9.46;64.00;99523.78;7357948;19;20433;-57
2023/01/09 11:16:09;;;;;;;0.00;0.00;;;;;;;9.47;63.66;99517.66;7355813;19;20006;-59
2023/01/09 11:18:46;;;;;;;0.00;0.00;;;;;;;9.50;62.97;99538.41;7356117;19;20090;-59
2023/01/09 11:21:34;;;;;;;0.00;0.00;;;;;;;9.65;63.79;99530.94;7360348;19;20007;-58
2023/01/09 11:24:19;;;;;;;0.10;0.10;;;;;;;9.76;63.21;99523.56;7361886;19;20002;-58
2023/01/09 11:26:46;;;;;;;0.00;0.00;;;;;;;9.70;62.41;99502.94;7355981;19;20010;-58
2023/01/09 11:29:20;;;;;;;0.00;0.00;;;;;;;9.89;63.44;99519.56;7360355;19;20126;-57
2023/01/09 11:31:57;;;;;;;0.10;0.10;;;;;;;10.04;63.80;99539.84;7360373;19;20039;-58
2023/01/09 11:34:26;;;;;;;0.00;0.00;;;;;;;10.23;62.52;99539.09;7359612;19;20014;-58
2023/01/09 11:36:53;;;;;;;0.10;0.10;;;;;;;10.38;61.69;99541.97;7357202;19;20014;-59
2023/01/09 11:39:24;;;;;;;0.00;0.00;;;;;;;10.55;61.45;99550.91;7362516;19;20062;-58
2023/01/09 11:42:01;;;;;;;0.00;0.00;;;;;;;10.74;61.90;99532.69;7358645;19;20018;-58
2023/01/09 11:44:29;;;;;;;0.00;0.00;;;;;;;10.83;60.20;99540.13;7361202;19;20006;-58
2023/01/09 11:46:55;;;;;;;0.10;0.10;;;;;;;10.95;59.11;99555.31;7355255;19;20018;-59
2023/01/09 11:49:23;;;;;;;0.00;0.00;;;;;;;11.07;59.41;99528.66;7352891;19;20762;-57
2023/01/09 11:52:11;;;;;;;0.10;0.10;;;;;;;11.20;59.61;99539.41;7349987;19;20015;-58
2023/01/09 11:54:39;;;;;;;0.00;0.00;;;;;;;11.20;58.35;99543.78;7352777;19;20478;-58
2023/01/09 11:57:09;;;;;;;0.10;0.10;;;;;;;11.30;58.21;99558.13;7356265;19;20014;-58
2023/01/09 11:59:34;;;;;;;0.03;0.03;;;;;;;11.35;58.18;99550.94;7355328;19;20135;-58
2023/01/09 12:02:21;;;;;;;0.00;0.00;;;;;;;11.47;59.20;99562.66;7356073;19;20014;-57
2023/01/09 12:04:53;;;;;;;0.10;0.10;;;;;;;11.53;58.18;99551.91;7344046;19;20022;-59